Time;durP1;ratioP1;P1;durP2;ratioP2;P2;SDS_P1;SDS_P2;PMS_P1;PMS_P2;Temp;Humidity;BMP_temperature;BMP_pressure;BME280_temperature;BME280_humidity;BME280_pressure;Samples;Min_cycle;Max_cycle;Signal;HPM_P1;HPM_P2
2021/07/07 00:01:34;;;;;;;0.40;0.40;;;16.30;80.50;;;;;;5077071;28;20845;-79
2021/07/07 00:04:00;;;;;;;0.20;0.20;;;16.20;80.40;;;;;;5077716;28;20043;-81
2021/07/07 00:06:26;;;;;;;0.47;0.38;;;16.30;80.50;;;;;;5061170;28;20388;-80
2021/07/07 00:08:56;;;;;;;0.40;0.40;;;16.30;80.50;;;;;;5077545;28;20040;-81
2021/07/07 00:11:21;;;;;;;0.30;0.30;;;16.30;80.50;;;;;;5078469;28;20048;-79
2021/07/07 00:13:47;;;;;;;0.20;0.20;;;16.30;80.50;;;;;;5094399;28;20047;-79
2021/07/07 00:16:13;;;;;;;0.28;0.28;;;16.30;80.50;;;;;;5094927;28;20040;-80
2021/07/07 00:18:39;;;;;;;0.85;0.30;;;16.30;80.60;;;;;;5077570;28;20044;-79
2021/07/07 00:21:05;;;;;;;0.43;0.38;;;16.30;80.60;;;;;;5064347;28;20032;-79
2021/07/07 00:23:31;;;;;;;0.30;0.30;;;16.30;80.60;;;;;;5123542;28;20050;-80
2021/07/07 00:25:57;;;;;;;0.20;0.20;;;16.20;80.60;;;;;;5124800;28;20469;-80
2021/07/07 00:28:24;;;;;;;0.30;0.30;;;16.20;80.70;;;;;;5118438;28;20047;-80
2021/07/07 00:30:50;;;;;;;0.20;0.20;;;16.20;80.70;;;;;;5118017;28;20043;-81
2021/07/07 00:33:20;;;;;;;0.40;0.20;;;16.10;80.70;;;;;;5075924;28;20047;-80
2021/07/07 00:35:46;;;;;;;0.20;0.20;;;16.20;80.90;;;;;;5110044;28;20134;-78
2021/07/07 00:38:13;;;;;;;0.75;0.30;;;16.10;80.90;;;;;;5128425;28;20028;-80
2021/07/07 00:40:41;;;;;;;0.20;0.20;;;16.10;81.10;;;;;;5134082;28;20052;-80
2021/07/07 00:43:07;;;;;;;0.75;0.30;;;16.10;81.20;;;;;;5100857;28;20027;-80
2021/07/07 00:45:32;;;;;;;0.32;0.32;;;16.00;81.20;;;;;;5135693;28;20035;-81
2021/07/07 00:47:58;;;;;;;0.20;0.20;;;16.00;81.30;;;;;;5049669;28;20044;-80
2021/07/07 00:50:24;;;;;;;0.38;0.30;;;15.90;81.40;;;;;;5053074;28;20426;-80
2021/07/07 00:52:50;;;;;;;0.20;0.20;;;15.90;81.50;;;;;;5036328;28;20095;-80
2021/07/07 00:55:16;;;;;;;0.55;0.40;;;15.80;81.60;;;;;;5034435;28;20072;-80
2021/07/07 00:57:44;;;;;;;0.47;0.30;;;15.80;81.70;;;;;;5019562;28;20060;-81
2021/07/07 01:00:13;;;;;;;0.20;0.20;;;15.80;81.80;;;;;;5036551;28;20092;-80
2021/07/07 01:02:41;;;;;;;0.20;0.20;;;15.80;81.90;;;;;;5036374;28;20529;-81
2021/07/07 01:05:08;;;;;;;0.20;0.20;;;15.70;82.00;;;;;;5036068;28;20045;-81
2021/07/07 01:07:34;;;;;;;0.32;0.30;;;15.70;82.00;;;;;;5052789;28;20403;-81
2021/07/07 01:10:00;;;;;;;0.40;0.40;;;15.70;82.10;;;;;;5003095;28;20045;-80
2021/07/07 01:12:26;;;;;;;0.35;0.30;;;15.70;82.70;;;;;;5036523;28;20048;-81
2021/07/07 01:14:54;;;;;;;0.10;0.10;;;15.60;82.00;;;;;;5003405;28;20045;-80
2021/07/07 01:17:23;;;;;;;0.20;0.20;;;15.60;82.10;;;;;;5036737;28;20535;-81
2021/07/07 01:19:49;;;;;;;0.28;0.28;;;15.60;82.20;;;;;;5069385;28;20440;-80
2021/07/07 01:22:14;;;;;;;0.30;0.30;;;15.60;82.20;;;;;;5097632;28;20046;-80
2021/07/07 01:24:40;;;;;;;0.20;0.20;;;15.50;82.20;;;;;;5097041;28;20040;-80
2021/07/07 01:27:06;;;;;;;0.20;0.20;;;15.50;82.30;;;;;;5097032;28;20565;-80
2021/07/07 01:29:31;;;;;;;0.30;0.30;;;15.40;82.30;;;;;;5079865;28;20043;-81
2021/07/07 01:31:57;;;;;;;0.30;0.30;;;15.40;82.40;;;;;;5097308;28;20032;-81
2021/07/07 01:34:22;;;;;;;0.30;0.30;;;15.40;83.10;;;;;;5097270;28;20378;-81
2021/07/07 01:36:48;;;;;;;0.32;0.30;;;15.30;82.50;;;;;;5115342;28;20088;-81
2021/07/07 01:39:14;;;;;;;0.30;0.30;;;15.30;82.50;;;;;;5079418;28;20032;-80
2021/07/07 01:41:39;;;;;;;0.38;0.38;;;15.30;82.60;;;;;;5063135;28;20070;-80
2021/07/07 01:44:06;;;;;;;0.30;0.30;;;15.20;82.60;;;;;;5097652;28;20047;-80
2021/07/07 01:46:31;;;;;;;0.57;0.30;;;15.20;82.70;;;;;;5079610;28;20035;-80
2021/07/07 01:48:57;;;;;;;0.30;0.30;;;15.20;83.30;;;;;;5080177;28;20050;-80
2021/07/07 01:51:23;;;;;;;0.30;0.30;;;15.20;82.80;;;;;;5096829;28;20393;-80
2021/07/07 01:53:49;;;;;;;0.20;0.20;;;15.20;82.80;;;;;;5079382;28;20138;-80
2021/07/07 01:56:14;;;;;;;0.28;0.28;;;15.20;82.90;;;;;;5063106;28;20051;-80
2021/07/07 01:58:40;;;;;;;0.75;0.20;;;15.10;82.90;;;;;;5095034;28;20043;-80
2021/07/07 02:01:07;;;;;;;0.30;0.30;;;15.00;82.90;;;;;;5062508;28;20048;-80
2021/07/07 02:03:32;;;;;;;0.30;0.30;;;15.00;82.90;;;;;;5096435;28;20078;-80
2021/07/07 02:05:58;;;;;;;0.20;0.15;;;15.00;83.00;;;;;;5096644;28;20078;-80
2021/07/07 02:08:24;;;;;;;0.20;0.20;;;15.00;83.10;;;;;;5114824;28;20498;-80
2021/07/07 02:10:49;;;;;;;0.25;0.25;;;15.00;83.10;;;;;;5079438;28;20039;-80
2021/07/07 02:13:15;;;;;;;0.20;0.20;;;14.90;83.10;;;;;;5095682;28;20043;-80
2021/07/07 02:15:41;;;;;;;1.77;0.30;;;14.90;83.20;;;;;;5115692;28;20040;-80
2021/07/07 02:18:08;;;;;;;0.30;0.30;;;14.90;83.20;;;;;;5097044;28;20035;-80
2021/07/07 02:20:39;;;;;;;0.70;0.28;;;14.80;83.20;;;;;;5096583;28;20056;-81
2021/07/07 02:23:05;;;;;;;0.20;0.20;;;14.80;83.40;;;;;;5080138;28;20093;-80
2021/07/07 02:25:34;;;;;;;1.48;0.47;;;14.70;83.30;;;;;;5080016;28;20036;-81
2021/07/07 02:28:00;;;;;;;0.30;0.30;;;14.80;83.40;;;;;;5095344;28;20043;-81
2021/07/07 02:30:29;;;;;;;0.22;0.20;;;14.80;83.40;;;;;;5096669;28;20048;-80
2021/07/07 02:32:56;;;;;;;0.30;0.30;;;14.70;83.40;;;;;;5079420;28;20051;-80
2021/07/07 02:35:25;;;;;;;0.50;0.40;;;14.70;83.40;;;;;;5078792;28;20039;-81
2021/07/07 02:37:53;;;;;;;0.60;0.40;;;14.70;83.40;;;;;;5096465;28;20043;-81
2021/07/07 02:40:20;;;;;;;0.30;0.30;;;14.70;83.40;;;;;;5114084;28;20116;-81
2021/07/07 02:42:46;;;;;;;0.38;0.30;;;14.60;83.40;;;;;;5096042;28;20040;-81
2021/07/07 02:45:13;;;;;;;0.85;0.22;;;14.60;83.50;;;;;;5114284;28;20046;-81
2021/07/07 02:47:40;;;;;;;0.20;0.20;;;14.60;83.50;;;;;;5079306;28;20046;-81
2021/07/07 02:50:08;;;;;;;0.52;0.35;;;14.60;83.50;;;;;;5096455;28;20191;-81
2021/07/07 02:52:34;;;;;;;0.28;0.28;;;14.60;83.60;;;;;;5096931;28;20043;-80
2021/07/07 02:55:00;;;;;;;0.40;0.40;;;14.50;83.60;;;;;;5096126;28;20046;-80
2021/07/07 02:57:25;;;;;;;0.40;0.40;;;14.50;83.60;;;;;;5096571;28;20043;-80
2021/07/07 02:59:51;;;;;;;0.52;0.20;;;14.50;83.70;;;;;;5061462;28;20549;-80
2021/07/07 03:02:17;;;;;;;0.30;0.30;;;14.50;83.70;;;;;;5114130;28;20385;-80
2021/07/07 03:04:42;;;;;;;0.32;0.32;;;14.40;83.70;;;;;;5095224;28;20036;-80
2021/07/07 03:07:08;;;;;;;0.35;0.35;;;14.40;83.80;;;;;;5114589;28;20428;-80
2021/07/07 03:09:33;;;;;;;0.30;0.30;;;14.40;83.80;;;;;;5095784;28;20047;-81
2021/07/07 03:11:59;;;;;;;0.40;0.40;;;14.40;83.90;;;;;;5096403;28;20044;-80
2021/07/07 03:14:25;;;;;;;0.50;0.50;;;14.40;83.90;;;;;;5095324;28;20043;-80
2021/07/07 03:16:50;;;;;;;0.30;0.25;;;14.40;83.80;;;;;;5079228;28;20142;-80
2021/07/07 03:19:16;;;;;;;0.55;0.50;;;14.40;83.80;;;;;;5078778;28;20051;-80
2021/07/07 03:21:42;;;;;;;0.30;0.30;;;14.50;83.80;;;;;;5095709;28;20046;-80
2021/07/07 03:24:10;;;;;;;0.20;0.20;;;14.50;83.70;;;;;;5095837;28;20031;-81
2021/07/07 03:26:36;;;;;;;0.30;0.30;;;14.40;83.60;;;;;;5079354;28;20035;-80
2021/07/07 03:29:03;;;;;;;0.35;0.35;;;14.40;83.60;;;;;;5079559;28;20055;-81
2021/07/07 03:31:28;;;;;;;0.20;0.20;;;14.40;83.70;;;;;;5079407;28;20142;-80
2021/07/07 03:33:54;;;;;;;0.45;0.30;;;14.40;83.70;;;;;;5078936;28;20446;-80
2021/07/07 03:36:19;;;;;;;0.30;0.30;;;14.40;83.70;;;;;;5094619;28;20063;-80
2021/07/07 03:38:46;;;;;;;0.40;0.40;;;14.30;83.70;;;;;;5096350;28;20109;-80
2021/07/07 03:41:12;;;;;;;0.30;0.30;;;14.40;83.80;;;;;;5115212;28;20087;-80
2021/07/07 03:43:38;;;;;;;0.30;0.30;;;14.40;83.70;;;;;;5080410;28;20096;-81
2021/07/07 03:46:04;;;;;;;0.40;0.40;;;14.50;83.80;;;;;;5062860;28;20028;-80
2021/07/07 03:48:29;;;;;;;0.30;0.30;;;14.40;83.60;;;;;;5096248;28;20393;-80
2021/07/07 03:50:55;;;;;;;0.20;0.20;;;14.50;83.60;;;;;;5094772;28;20061;-80
2021/07/07 03:53:21;;;;;;;0.35;0.35;;;14.50;83.60;;;;;;5113982;28;20058;-80
2021/07/07 03:55:46;;;;;;;0.30;0.30;;;14.60;83.60;;;;;;5078052;28;20061;-81
2021/07/07 03:58:12;;;;;;;0.30;0.30;;;14.60;83.50;;;;;;5062006;28;20039;-81
2021/07/07 04:00:39;;;;;;;0.30;0.30;;;14.60;83.40;;;;;;5095059;28;20094;-81
2021/07/07 04:03:06;;;;;;;0.22;0.22;;;14.60;83.40;;;;;;5094126;28;20048;-80
2021/07/07 04:05:32;;;;;;;0.32;0.32;;;14.60;83.40;;;;;;5064337;28;20044;-81
2021/07/07 04:07:57;;;;;;;0.30;0.30;;;14.70;83.50;;;;;;5096463;28;20035;-81
2021/07/07 04:10:23;;;;;;;0.30;0.30;;;14.60;83.50;;;;;;5096508;28;20086;-81
2021/07/07 04:12:49;;;;;;;0.55;0.30;;;14.60;83.50;;;;;;5094929;28;20055;-81
2021/07/07 04:15:16;;;;;;;0.20;0.20;;;14.60;83.60;;;;;;5096337;28;20066;-81
2021/07/07 04:17:42;;;;;;;0.40;0.40;;;14.60;83.60;;;;;;5096136;28;20071;-81
2021/07/07 04:20:10;;;;;;;0.30;0.30;;;14.60;83.60;;;;;;5094966;28;20055;-81
2021/07/07 04:22:37;;;;;;;0.40;0.40;;;14.60;83.70;;;;;;5080385;28;20115;-81
2021/07/07 04:25:06;;;;;;;0.32;0.32;;;14.60;83.60;;;;;;5097470;28;20036;-80
2021/07/07 04:27:31;;;;;;;0.30;0.30;;;14.60;83.70;;;;;;5080666;28;20047;-82
2021/07/07 04:29:57;;;;;;;0.30;0.30;;;14.70;83.70;;;;;;5115515;28;20039;-81
2021/07/07 04:32:23;;;;;;;0.30;0.30;;;14.70;83.70;;;;;;5115787;28;20128;-81
2021/07/07 04:34:50;;;;;;;0.30;0.30;;;14.70;83.70;;;;;;5080738;28;20035;-81
2021/07/07 04:37:15;;;;;;;0.30;0.30;;;14.70;83.70;;;;;;5114956;28;20047;-81
2021/07/07 04:39:41;;;;;;;0.40;0.40;;;14.70;83.70;;;;;;5080400;28;20044;-81
2021/07/07 04:42:07;;;;;;;0.20;0.20;;;14.70;83.70;;;;;;5094674;28;20045;-81
2021/07/07 04:44:32;;;;;;;0.85;0.40;;;14.70;83.70;;;;;;5093958;28;20043;-81
2021/07/07 04:46:59;;;;;;;0.50;0.40;;;14.70;83.70;;;;;;5094518;28;20034;-81
2021/07/07 04:49:25;;;;;;;0.50;0.40;;;14.80;83.70;;;;;;5078315;28;20063;-81
2021/07/07 04:51:51;;;;;;;0.57;0.52;;;14.70;83.60;;;;;;5093975;28;20040;-81
2021/07/07 04:54:16;;;;;;;0.43;0.30;;;14.80;83.60;;;;;;5112916;28;20504;-81
2021/07/07 04:56:44;;;;;;;0.60;0.40;;;14.90;83.60;;;;;;5077379;28;20040;-81
2021/07/07 04:59:10;;;;;;;0.32;0.25;;;15.00;83.60;;;;;;5060307;28;20024;-81
2021/07/07 05:01:37;;;;;;;0.40;0.40;;;15.10;83.50;;;;;;5077485;28;20051;-81
2021/07/07 05:04:02;;;;;;;0.40;0.40;;;15.10;83.30;;;;;;5094114;28;20485;-81
2021/07/07 05:06:29;;;;;;;0.30;0.30;;;15.10;83.10;;;;;;5094423;28;20047;-81
2021/07/07 05:08:54;;;;;;;0.88;0.30;;;15.30;83.10;;;;;;5094373;28;20109;-80
2021/07/07 05:11:20;;;;;;;0.30;0.30;;;15.40;83.00;;;;;;5077290;28;20142;-81
2021/07/07 05:13:46;;;;;;;0.30;0.30;;;15.40;82.90;;;;;;5077022;28;20047;-81
2021/07/07 05:16:12;;;;;;;0.38;0.38;;;15.50;82.90;;;;;;5112158;28;20047;-80
2021/07/07 05:18:38;;;;;;;0.38;0.38;;;15.50;82.70;;;;;;5094608;28;20039;-80
2021/07/07 05:21:04;;;;;;;0.73;0.40;;;15.60;82.60;;;;;;5094228;28;20108;-81
2021/07/07 05:23:33;;;;;;;0.40;0.40;;;15.70;82.50;;;;;;5112071;28;20039;-81
2021/07/07 05:26:00;;;;;;;0.95;0.40;;;15.80;82.50;;;;;;5095892;28;20044;-81
2021/07/07 05:28:26;;;;;;;0.20;0.20;;;15.80;82.40;;;;;;5097952;28;20043;-81
2021/07/07 05:30:52;;;;;;;0.20;0.20;;;15.90;82.40;;;;;;5081836;28;20107;-81
2021/07/07 05:33:17;;;;;;;0.40;0.40;;;15.90;82.30;;;;;;5097648;28;20043;-81
2021/07/07 05:35:43;;;;;;;0.22;0.22;;;16.00;82.40;;;;;;5115803;28;20050;-79
2021/07/07 05:38:10;;;;;;;0.30;0.30;;;16.10;82.40;;;;;;5105261;28;20048;-80
2021/07/07 05:40:36;;;;;;;0.30;0.30;;;16.10;82.20;;;;;;5101767;28;20040;-81
2021/07/07 05:43:03;;;;;;;0.22;0.22;;;16.20;82.20;;;;;;5122232;28;20111;-79
2021/07/07 05:45:29;;;;;;;0.30;0.30;;;16.30;82.10;;;;;;5101067;28;20044;-79
2021/07/07 05:47:56;;;;;;;0.82;0.50;;;16.40;82.10;;;;;;5116260;28;20548;-79
2021/07/07 05:50:23;;;;;;;1.75;0.40;;;16.40;82.00;;;;;;5084547;28;20047;-80
2021/07/07 05:52:49;;;;;;;0.70;0.40;;;16.50;82.00;;;;;;5121181;28;20066;-79
2021/07/07 05:55:15;;;;;;;1.73;0.38;;;16.60;81.90;;;;;;5081349;28;20481;-79
2021/07/07 05:57:41;;;;;;;0.30;0.30;;;16.60;81.90;;;;;;5097068;28;20122;-79
2021/07/07 06:00:18;;;;;;;0.40;0.40;;;16.60;81.90;;;;;;5096578;28;20572;-80
2021/07/07 06:02:47;;;;;;;0.80;0.50;;;16.60;81.90;;;;;;5097383;28;20044;-77
2021/07/07 06:05:12;;;;;;;0.60;0.50;;;16.60;81.80;;;;;;5115736;28;20465;-79
2021/07/07 06:07:39;;;;;;;0.85;0.55;;;16.70;81.90;;;;;;5097092;28;20036;-78
2021/07/07 06:10:07;;;;;;;0.80;0.70;;;16.70;82.00;;;;;;5114771;28;20397;-79
